sensor_id;sensor_type;location;lat;lon;timestamp;pressure;altitude;pressure_sealevel;temperature;humidity
30021;BME280;16861;52.294;7.760;2023-02-19T00:01:28;99756.66;;;11.58;82.06
30021;BME280;16861;52.294;7.760;2023-02-19T00:04:00;99761.84;;;11.60;81.80
30021;BME280;16861;52.294;7.760;2023-02-19T00:06:29;99750.44;;;11.59;81.89
30021;BME280;16861;52.294;7.760;2023-02-19T00:08:56;99757.38;;;11.60;81.99
30021;BME280;16861;52.294;7.760;2023-02-19T00:11:25;99750.44;;;11.59;81.88
30021;BME280;16861;52.294;7.760;2023-02-19T00:13:54;99750.44;;;11.59;81.81
30021;BME280;16861;52.294;7.760;2023-02-19T00:16:30;99740.84;;;11.58;81.54
30021;BME280;16861;52.294;7.760;2023-02-19T00:18:58;99741.56;;;11.60;81.95
30021;BME280;16861;52.294;7.760;2023-02-19T00:21:25;99746.84;;;11.60;81.93
30021;BME280;16861;52.294;7.760;2023-02-19T00:23:55;99746.97;;;11.59;81.58
30021;BME280;16861;52.294;7.760;2023-02-19T00:26:22;99743.47;;;11.58;81.78
30021;BME280;16861;52.294;7.760;2023-02-19T00:28:49;99744.41;;;11.57;81.80
30021;BME280;16861;52.294;7.760;2023-02-19T00:31:22;99736.50;;;11.57;81.73
30021;BME280;16861;52.294;7.760;2023-02-19T00:33:52;99739.97;;;11.58;81.71
30021;BME280;16861;52.294;7.760;2023-02-19T00:36:19;99735.56;;;11.58;81.81
30021;BME280;16861;52.294;7.760;2023-02-19T00:38:46;99733.88;;;11.57;81.79
30021;BME280;16861;52.294;7.760;2023-02-19T00:41:14;99735.66;;;11.57;81.70
30021;BME280;16861;52.294;7.760;2023-02-19T00:43:55;99735.00;;;11.53;81.36
30021;BME280;16861;52.294;7.760;2023-02-19T00:46:34;99727.00;;;11.55;81.75
30021;BME280;16861;52.294;7.760;2023-02-19T00:49:01;99732.06;;;11.58;81.87
30021;BME280;16861;52.294;7.760;2023-02-19T00:51:30;99727.75;;;11.57;81.96
30021;BME280;16861;52.294;7.760;2023-02-19T00:53:57;99735.56;;;11.58;82.10
30021;BME280;16861;52.294;7.760;2023-02-19T00:56:24;99732.06;;;11.58;82.38
30021;BME280;16861;52.294;7.760;2023-02-19T00:58:50;99739.06;;;11.59;82.29
30021;BME280;16861;52.294;7.760;2023-02-19T01:01:17;99739.88;;;11.59;82.27
30021;BME280;16861;52.294;7.760;2023-02-19T01:03:45;99735.38;;;11.62;82.17
30021;BME280;16861;52.294;7.760;2023-02-19T01:06:14;99741.47;;;11.62;82.21
30021;BME280;16861;52.294;7.760;2023-02-19T01:08:41;99744.03;;;11.64;82.27
30021;BME280;16861;52.294;7.760;2023-02-19T01:11:08;99736.03;;;11.65;82.45
30021;BME280;16861;52.294;7.760;2023-02-19T01:13:37;99735.94;;;11.67;82.44
30021;BME280;16861;52.294;7.760;2023-02-19T01:16:08;99742.91;;;11.68;82.27
30021;BME280;16861;52.294;7.760;2023-02-19T01:18:35;99742.72;;;11.71;82.53
30021;BME280;16861;52.294;7.760;2023-02-19T01:21:11;99737.63;;;11.68;81.97
30021;BME280;16861;52.294;7.760;2023-02-19T01:23:38;99744.41;;;11.72;82.37
30021;BME280;16861;52.294;7.760;2023-02-19T01:26:07;99722.44;;;11.71;82.13
30021;BME280;16861;52.294;7.760;2023-02-19T01:28:35;99728.56;;;11.72;82.11
30021;BME280;16861;52.294;7.760;2023-02-19T01:31:03;99739.97;;;11.72;82.23
30021;BME280;16861;52.294;7.760;2023-02-19T01:33:31;99734.63;;;11.74;82.11
30021;BME280;16861;52.294;7.760;2023-02-19T01:35:58;99737.25;;;11.74;82.14
30021;BME280;16861;52.294;7.760;2023-02-19T01:38:25;99731.97;;;11.74;82.10
30021;BME280;16861;52.294;7.760;2023-02-19T01:40:57;99726.72;;;11.74;82.04
30021;BME280;16861;52.294;7.760;2023-02-19T01:43:23;99728.41;;;11.75;81.99
30021;BME280;16861;52.294;7.760;2023-02-19T01:45:50;99729.22;;;11.76;82.04
30021;BME280;16861;52.294;7.760;2023-02-19T01:50:57;99721.44;;;11.74;81.55
30021;BME280;16861;52.294;7.760;2023-02-19T01:53:31;99726.59;;;11.76;81.92
30021;BME280;16861;52.294;7.760;2023-02-19T01:55:59;99722.16;;;11.76;81.97
30021;BME280;16861;52.294;7.760;2023-02-19T01:58:30;99731.03;;;11.75;81.67
30021;BME280;16861;52.294;7.760;2023-02-19T02:01:00;99725.66;;;11.77;81.80
30021;BME280;16861;52.294;7.760;2023-02-19T02:03:28;99720.41;;;11.77;82.06
30021;BME280;16861;52.294;7.760;2023-02-19T02:06:01;99720.47;;;11.75;81.57
30021;BME280;16861;52.294;7.760;2023-02-19T02:08:30;99716.91;;;11.76;81.81
30021;BME280;16861;52.294;7.760;2023-02-19T02:11:16;99714.16;;;11.78;81.88
30021;BME280;16861;52.294;7.760;2023-02-19T02:13:43;99719.44;;;11.78;82.21
30021;BME280;16861;52.294;7.760;2023-02-19T02:24:52;99729.44;;;11.72;80.90
30021;BME280;16861;52.294;7.760;2023-02-19T02:30:44;99722.91;;;11.78;81.94
30021;BME280;16861;52.294;7.760;2023-02-19T02:35:50;99721.31;;;11.76;81.46
30021;BME280;16861;52.294;7.760;2023-02-19T02:38:20;99712.56;;;11.75;81.53
30021;BME280;16861;52.294;7.760;2023-02-19T02:40:49;99718.69;;;11.76;81.97
30021;BME280;16861;52.294;7.760;2023-02-19T02:43:16;99714.25;;;11.76;81.89
30021;BME280;16861;52.294;7.760;2023-02-19T02:45:43;99716.91;;;11.76;81.75
30021;BME280;16861;52.294;7.760;2023-02-19T02:48:17;99713.53;;;11.74;81.54
30021;BME280;16861;52.294;7.760;2023-02-19T02:53:24;99721.31;;;11.76;81.41
30021;BME280;16861;52.294;7.760;2023-02-19T02:56:12;99719.53;;;11.76;81.39
30021;BME280;16861;52.294;7.760;2023-02-19T02:58:41;99723.94;;;11.76;81.64
30021;BME280;16861;52.294;7.760;2023-02-19T03:01:17;99725.00;;;11.73;80.91
30021;BME280;16861;52.294;7.760;2023-02-19T03:04:13;99718.78;;;11.74;81.34
30021;BME280;16861;52.294;7.760;2023-02-19T03:06:41;99734.50;;;11.76;81.54
30021;BME280;16861;52.294;7.760;2023-02-19T03:09:23;99737.25;;;11.74;81.29
30021;BME280;16861;52.294;7.760;2023-02-19T03:11:58;99730.25;;;11.73;81.20
30021;BME280;16861;52.294;7.760;2023-02-19T03:14:48;99728.56;;;11.72;81.04
30021;BME280;16861;52.294;7.760;2023-02-19T03:17:46;99731.22;;;11.72;81.09
30021;BME280;16861;52.294;7.760;2023-02-19T03:20:34;99734.72;;;11.72;81.35
30021;BME280;16861;52.294;7.760;2023-02-19T03:23:02;99741.75;;;11.72;81.39
30021;BME280;16861;52.294;7.760;2023-02-19T03:25:32;99736.59;;;11.70;81.45
30021;BME280;16861;52.294;7.760;2023-02-19T03:28:22;99730.56;;;11.68;81.26
30021;BME280;16861;52.294;7.760;2023-02-19T03:31:14;99732.34;;;11.68;81.09
30021;BME280;16861;52.294;7.760;2023-02-19T03:33:44;99736.75;;;11.67;80.99
30021;BME280;16861;52.294;7.760;2023-02-19T03:36:13;99739.53;;;11.66;81.31
30021;BME280;16861;52.294;7.760;2023-02-19T03:38:51;99744.97;;;11.63;80.50
30021;BME280;16861;52.294;7.760;2023-02-19T03:46:22;99767.94;;;11.60;80.75
30021;BME280;16861;52.294;7.760;2023-02-19T03:49:05;99766.34;;;11.58;80.32
30021;BME280;16861;52.294;7.760;2023-02-19T03:51:40;99766.25;;;11.59;80.74
30021;BME280;16861;52.294;7.760;2023-02-19T03:54:31;99774.44;;;11.55;80.35
30021;BME280;16861;52.294;7.760;2023-02-19T03:57:06;99765.41;;;11.59;81.15
30021;BME280;16861;52.294;7.760;2023-02-19T03:59:48;99772.66;;;11.55;80.45
30021;BME280;16861;52.294;7.760;2023-02-19T04:03:01;99780.75;;;11.52;80.19
30021;BME280;16861;52.294;7.760;2023-02-19T04:05:34;99779.72;;;11.55;81.12
30021;BME280;16861;52.294;7.760;2023-02-19T04:08:10;99775.50;;;11.52;80.60
30021;BME280;16861;52.294;7.760;2023-02-19T04:10:39;99791.09;;;11.55;81.22
30021;BME280;16861;52.294;7.760;2023-02-19T04:13:23;99778.31;;;11.49;80.10
30021;BME280;16861;52.294;7.760;2023-02-19T04:15:53;99780.84;;;11.51;80.75
30021;BME280;16861;52.294;7.760;2023-02-19T04:18:26;99802.03;;;11.49;80.55
30021;BME280;16861;52.294;7.760;2023-02-19T04:20:55;99798.44;;;11.50;80.86
30021;BME280;16861;52.294;7.760;2023-02-19T04:23:25;99810.88;;;11.48;80.62
30021;BME280;16861;52.294;7.760;2023-02-19T04:25:57;99802.13;;;11.47;80.27
30021;BME280;16861;52.294;7.760;2023-02-19T04:28:24;99809.16;;;11.47;80.84
30021;BME280;16861;52.294;7.760;2023-02-19T04:30:51;99813.59;;;11.46;80.79
30021;BME280;16861;52.294;7.760;2023-02-19T04:33:18;99840.06;;;11.45;81.03
30021;BME280;16861;52.294;7.760;2023-02-19T04:35:44;99830.47;;;11.44;80.69
30021;BME280;16861;52.294;7.760;2023-02-19T04:38:11;99834.00;;;11.43;80.61
30021;BME280;16861;52.294;7.760;2023-02-19T04:40:39;99825.34;;;11.41;80.67
30021;BME280;16861;52.294;7.760;2023-02-19T04:43:05;99838.63;;;11.39;80.71
30021;BME280;16861;52.294;7.760;2023-02-19T04:45:32;99843.16;;;11.37;80.81
30021;BME280;16861;52.294;7.760;2023-02-19T04:47:58;99848.50;;;11.36;80.68
30021;BME280;16861;52.294;7.760;2023-02-19T04:50:25;99845.09;;;11.33;80.65
30021;BME280;16861;52.294;7.760;2023-02-19T04:52:52;99860.09;;;11.33;80.69
30021;BME280;16861;52.294;7.760;2023-02-19T04:55:18;99860.91;;;11.33;80.88
30021;BME280;16861;52.294;7.760;2023-02-19T04:57:45;99862.81;;;11.31;80.84
30021;BME280;16861;52.294;7.760;2023-02-19T05:00:12;99865.53;;;11.30;80.88
30021;BME280;16861;52.294;7.760;2023-02-19T05:02:38;99867.28;;;11.29;80.77
30021;BME280;16861;52.294;7.760;2023-02-19T05:05:05;99864.66;;;11.29;81.01
30021;BME280;16861;52.294;7.760;2023-02-19T05:07:32;99868.25;;;11.28;80.88
30021;BME280;16861;52.294;7.760;2023-02-19T05:09:58;99870.03;;;11.28;80.78
30021;BME280;16861;52.294;7.760;2023-02-19T05:12:25;99876.16;;;11.28;80.85
30021;BME280;16861;52.294;7.760;2023-02-19T05:14:52;99881.41;;;11.28;80.53
30021;BME280;16861;52.294;7.760;2023-02-19T05:17:18;99883.19;;;11.28;80.75
30021;BME280;16861;52.294;7.760;2023-02-19T05:19:45;99892.91;;;11.27;80.80
30021;BME280;16861;52.294;7.760;2023-02-19T05:22:11;99889.31;;;11.28;80.75
30021;BME280;16861;52.294;7.760;2023-02-19T05:24:38;99892.91;;;11.27;80.64
30021;BME280;16861;52.294;7.760;2023-02-19T05:27:04;99897.41;;;11.25;80.47
30021;BME280;16861;52.294;7.760;2023-02-19T05:29:31;99907.03;;;11.26;80.48
30021;BME280;16861;52.294;7.760;2023-02-19T05:32:03;99910.78;;;11.22;79.66
30021;BME280;16861;52.294;7.760;2023-02-19T05:34:30;99901.91;;;11.23;80.49
30021;BME280;16861;52.294;7.760;2023-02-19T05:36:57;99917.72;;;11.23;80.57
30021;BME280;16861;52.294;7.760;2023-02-19T05:39:23;99926.59;;;11.22;80.52
30021;BME280;16861;52.294;7.760;2023-02-19T05:41:50;99916.88;;;11.23;80.63
30021;BME280;16861;52.294;7.760;2023-02-19T05:44:16;99924.84;;;11.21;80.61
30021;BME280;16861;52.294;7.760;2023-02-19T05:46:43;99922.22;;;11.21;80.71
30021;BME280;16861;52.294;7.760;2023-02-19T05:49:09;99926.66;;;11.20;80.74
30021;BME280;16861;52.294;7.760;2023-02-19T05:51:36;99928.44;;;11.20;80.36
30021;BME280;16861;52.294;7.760;2023-02-19T05:54:02;99933.72;;;11.20;80.29
30021;BME280;16861;52.294;7.760;2023-02-19T05:56:37;99934.81;;;11.16;79.76
30021;BME280;16861;52.294;7.760;2023-02-19T05:59:16;99945.44;;;11.14;79.53
30021;BME280;16861;52.294;7.760;2023-02-19T06:01:43;99961.06;;;11.17;80.66
30021;BME280;16861;52.294;7.760;2023-02-19T06:04:10;99971.63;;;11.17;80.38
30021;BME280;16861;52.294;7.760;2023-02-19T06:06:37;99969.94;;;11.16;79.07
30021;BME280;16861;52.294;7.760;2023-02-19T06:09:05;99980.72;;;11.12;78.28
30021;BME280;16861;52.294;7.760;2023-02-19T06:11:32;99977.56;;;11.05;77.56
30021;BME280;16861;52.294;7.760;2023-02-19T06:13:59;99989.47;;;10.96;77.34
30021;BME280;16861;52.294;7.760;2023-02-19T06:16:26;100003.03;;;10.88;77.17
30021;BME280;16861;52.294;7.760;2023-02-19T06:18:52;100005.34;;;10.78;77.22
30021;BME280;16861;52.294;7.760;2023-02-19T06:21:19;100013.72;;;10.69;77.37
30021;BME280;16861;52.294;7.760;2023-02-19T06:23:46;100012.44;;;10.60;78.02
30021;BME280;16861;52.294;7.760;2023-02-19T06:26:19;100024.22;;;10.53;77.98
30021;BME280;16861;52.294;7.760;2023-02-19T06:28:47;100031.50;;;10.48;78.24
30021;BME280;16861;52.294;7.760;2023-02-19T06:31:15;100036.13;;;10.42;77.95
30021;BME280;16861;52.294;7.760;2023-02-19T06:33:42;100049.53;;;10.38;77.45
30021;BME280;16861;52.294;7.760;2023-02-19T06:36:14;100049.16;;;10.28;76.95
30021;BME280;16861;52.294;7.760;2023-02-19T06:38:41;100049.47;;;10.22;77.12
30021;BME280;16861;52.294;7.760;2023-02-19T06:41:09;100050.88;;;10.11;77.30
30021;BME280;16861;52.294;7.760;2023-02-19T06:43:36;100061.75;;;10.03;77.16
30021;BME280;16861;52.294;7.760;2023-02-19T06:46:05;100072.72;;;9.94;76.93
30021;BME280;16861;52.294;7.760;2023-02-19T06:48:32;100079.22;;;9.87;77.08
30021;BME280;16861;52.294;7.760;2023-02-19T06:50:59;100081.38;;;9.78;77.14
30021;BME280;16861;52.294;7.760;2023-02-19T06:53:25;100089.63;;;9.71;77.26
30021;BME280;16861;52.294;7.760;2023-02-19T06:58:23;100111.41;;;9.55;77.71
30021;BME280;16861;52.294;7.760;2023-02-19T07:00:49;100114.28;;;9.49;77.41
30021;BME280;16861;52.294;7.760;2023-02-19T07:03:16;100122.41;;;9.44;78.07
30021;BME280;16861;52.294;7.760;2023-02-19T07:05:42;100128.72;;;9.40;78.58
30021;BME280;16861;52.294;7.760;2023-02-19T07:08:09;100134.13;;;9.37;78.82
30021;BME280;16861;52.294;7.760;2023-02-19T07:10:36;100143.84;;;9.35;78.72
30021;BME280;16861;52.294;7.760;2023-02-19T07:13:02;100141.34;;;9.32;79.00
30021;BME280;16861;52.294;7.760;2023-02-19T07:15:29;100137.97;;;9.30;78.62
30021;BME280;16861;52.294;7.760;2023-02-19T07:17:55;100141.56;;;9.27;78.10
30021;BME280;16861;52.294;7.760;2023-02-19T07:20:22;100153.00;;;9.26;78.45
30021;BME280;16861;52.294;7.760;2023-02-19T07:22:49;100158.38;;;9.23;78.49
30021;BME280;16861;52.294;7.760;2023-02-19T07:25:15;100162.09;;;9.19;78.41
30021;BME280;16861;52.294;7.760;2023-02-19T07:27:42;100166.53;;;9.17;78.62
30021;BME280;16861;52.294;7.760;2023-02-19T07:30:09;100164.91;;;9.14;78.57
30021;BME280;16861;52.294;7.760;2023-02-19T07:32:40;100175.53;;;9.11;78.03
30021;BME280;16861;52.294;7.760;2023-02-19T07:35:06;100172.16;;;9.09;78.73
30021;BME280;16861;52.294;7.760;2023-02-19T07:37:33;100181.84;;;9.07;78.52
30021;BME280;16861;52.294;7.760;2023-02-19T07:39:59;100191.56;;;9.05;78.52
30021;BME280;16861;52.294;7.760;2023-02-19T07:42:26;100196.03;;;9.03;78.57
30021;BME280;16861;52.294;7.760;2023-02-19T07:44:53;100194.41;;;9.00;78.99
30021;BME280;16861;52.294;7.760;2023-02-19T07:47:19;100198.81;;;8.99;78.88
30021;BME280;16861;52.294;7.760;2023-02-19T07:49:46;100203.19;;;8.99;79.08
30021;BME280;16861;52.294;7.760;2023-02-19T07:52:12;100215.47;;;8.98;79.47
30021;BME280;16861;52.294;7.760;2023-02-19T07:54:39;100221.56;;;8.99;79.09
30021;BME280;16861;52.294;7.760;2023-02-19T07:57:05;100229.47;;;8.99;79.59
30021;BME280;16861;52.294;7.760;2023-02-19T07:59:33;100234.66;;;9.01;79.50
30021;BME280;16861;52.294;7.760;2023-02-19T08:02:00;100228.47;;;9.02;79.48
30021;BME280;16861;52.294;7.760;2023-02-19T08:04:46;100239.91;;;9.01;79.20
30021;BME280;16861;52.294;7.760;2023-02-19T08:07:13;100247.72;;;9.02;79.08
30021;BME280;16861;52.294;7.760;2023-02-19T08:09:39;100251.16;;;9.03;79.11
30021;BME280;16861;52.294;7.760;2023-02-19T08:12:08;100243.34;;;9.01;79.37
30021;BME280;16861;52.294;7.760;2023-02-19T08:14:54;100256.44;;;9.03;79.69
30021;BME280;16861;52.294;7.760;2023-02-19T08:17:21;100249.41;;;9.03;79.12
30021;BME280;16861;52.294;7.760;2023-02-19T08:19:47;100249.41;;;9.03;78.90
30021;BME280;16861;52.294;7.760;2023-02-19T08:22:14;100252.09;;;9.02;78.66
30021;BME280;16861;52.294;7.760;2023-02-19T08:24:41;100264.38;;;9.01;78.39
30021;BME280;16861;52.294;7.760;2023-02-19T08:27:10;100266.28;;;8.97;78.22
30021;BME280;16861;52.294;7.760;2023-02-19T08:29:36;100276.00;;;8.95;77.92
30021;BME280;16861;52.294;7.760;2023-02-19T08:32:03;100271.78;;;8.91;78.38
30021;BME280;16861;52.294;7.760;2023-02-19T08:34:29;100272.84;;;8.87;77.82
30021;BME280;16861;52.294;7.760;2023-02-19T08:36:56;100281.75;;;8.83;78.09
30021;BME280;16861;52.294;7.760;2023-02-19T08:39:23;100278.38;;;8.79;78.05
30021;BME280;16861;52.294;7.760;2023-02-19T08:41:49;100265.34;;;8.78;78.59
30021;BME280;16861;52.294;7.760;2023-02-19T08:44:16;100268.88;;;8.77;79.06
30021;BME280;16861;52.294;7.760;2023-02-19T08:46:43;100270.66;;;8.76;79.51
30021;BME280;16861;52.294;7.760;2023-02-19T08:49:09;100280.25;;;8.77;79.34
30021;BME280;16861;52.294;7.760;2023-02-19T08:51:36;100282.81;;;8.79;79.26
30021;BME280;16861;52.294;7.760;2023-02-19T08:54:02;100290.63;;;8.80;78.81
30021;BME280;16861;52.294;7.760;2023-02-19T08:56:29;100300.25;;;8.80;78.76
30021;BME280;16861;52.294;7.760;2023-02-19T08:58:56;100300.19;;;8.81;79.09
30021;BME280;16861;52.294;7.760;2023-02-19T09:01:22;100308.00;;;8.83;79.33
30021;BME280;16861;52.294;7.760;2023-02-19T09:03:49;100313.16;;;8.86;79.59
30021;BME280;16861;52.294;7.760;2023-02-19T09:06:17;100317.41;;;8.89;79.49
30021;BME280;16861;52.294;7.760;2023-02-19T09:08:44;100329.50;;;8.93;79.78
30021;BME280;16861;52.294;7.760;2023-02-19T09:11:11;100334.66;;;8.94;79.39
30021;BME280;16861;52.294;7.760;2023-02-19T09:13:38;100333.63;;;8.98;79.14
30021;BME280;16861;52.294;7.760;2023-02-19T09:16:04;100341.44;;;9.00;78.93
30021;BME280;16861;52.294;7.760;2023-02-19T09:18:31;100349.19;;;9.03;79.26
30021;BME280;16861;52.294;7.760;2023-02-19T09:21:03;100350.84;;;9.06;79.62
30021;BME280;16861;52.294;7.760;2023-02-19T09:23:34;100353.34;;;9.09;78.72
30021;BME280;16861;52.294;7.760;2023-02-19T09:26:03;100365.44;;;9.13;79.67
30021;BME280;16861;52.294;7.760;2023-02-19T09:28:32;100366.97;;;9.19;80.09
30021;BME280;16861;52.294;7.760;2023-02-19T09:31:10;100370.31;;;9.22;78.35
30021;BME280;16861;52.294;7.760;2023-02-19T09:33:40;100370.03;;;9.29;79.41
30021;BME280;16861;52.294;7.760;2023-02-19T09:36:07;100383.91;;;9.32;79.01
30021;BME280;16861;52.294;7.760;2023-02-19T09:38:34;100386.41;;;9.35;79.06
30021;BME280;16861;52.294;7.760;2023-02-19T09:41:12;100395.22;;;9.34;77.13
30021;BME280;16861;52.294;7.760;2023-02-19T09:43:40;100403.81;;;9.38;78.55
30021;BME280;16861;52.294;7.760;2023-02-19T09:49:05;100409.00;;;9.39;77.36
30021;BME280;16861;52.294;7.760;2023-02-19T09:51:35;100402.69;;;9.44;78.22
30021;BME280;16861;52.294;7.760;2023-02-19T09:54:05;100411.41;;;9.46;78.61
30021;BME280;16861;52.294;7.760;2023-02-19T09:56:33;100425.19;;;9.51;79.54
30021;BME280;16861;52.294;7.760;2023-02-19T09:59:00;100438.13;;;9.56;79.61
30021;BME280;16861;52.294;7.760;2023-02-19T10:01:30;100453.72;;;9.60;79.09
30021;BME280;16861;52.294;7.760;2023-02-19T10:03:58;100458.63;;;9.68;80.28
30021;BME280;16861;52.294;7.760;2023-02-19T10:06:26;100468.06;;;9.74;79.80
30021;BME280;16861;52.294;7.760;2023-02-19T10:09:01;100464.25;;;9.81;79.21
30021;BME280;16861;52.294;7.760;2023-02-19T10:11:36;100469.88;;;9.93;80.12
30021;BME280;16861;52.294;7.760;2023-02-19T10:14:06;100474.91;;;9.99;79.03
30021;BME280;16861;52.294;7.760;2023-02-19T10:16:38;100478.19;;;10.04;78.03
30021;BME280;16861;52.294;7.760;2023-02-19T10:19:10;100478.91;;;10.08;77.83
30021;BME280;16861;52.294;7.760;2023-02-19T10:21:38;100488.38;;;10.12;78.59
30021;BME280;16861;52.294;7.760;2023-02-19T10:24:06;100496.19;;;10.13;78.11
30021;BME280;16861;52.294;7.760;2023-02-19T10:26:33;100492.56;;;10.16;78.30
30021;BME280;16861;52.294;7.760;2023-02-19T10:29:03;100479.41;;;10.16;78.56
30021;BME280;16861;52.294;7.760;2023-02-19T10:31:31;100479.22;;;10.21;79.28
30021;BME280;16861;52.294;7.760;2023-02-19T10:33:59;100475.47;;;10.26;79.51
30021;BME280;16861;52.294;7.760;2023-02-19T10:36:40;100483.03;;;10.34;79.74
30021;BME280;16861;52.294;7.760;2023-02-19T10:39:41;100490.56;;;10.42;77.33
30021;BME280;16861;52.294;7.760;2023-02-19T10:42:20;100508.41;;;10.56;78.17
30021;BME280;16861;52.294;7.760;2023-02-19T10:44:56;100512.28;;;10.68;78.61
30021;BME280;16861;52.294;7.760;2023-02-19T10:47:25;100501.13;;;10.82;80.16
30021;BME280;16861;52.294;7.760;2023-02-19T10:49:56;100504.03;;;10.95;79.43
30021;BME280;16861;52.294;7.760;2023-02-19T10:52:27;100505.25;;;11.07;79.13
30021;BME280;16861;52.294;7.760;2023-02-19T10:55:42;100507.38;;;11.18;79.32
30021;BME280;16861;52.294;7.760;2023-02-19T10:57:43;100507.63;;;11.31;79.53
30021;BME280;16861;52.294;7.760;2023-02-19T11:03:21;100522.66;;;11.48;75.10
30021;BME280;16861;52.294;7.760;2023-02-19T11:05:52;100530.03;;;11.59;77.89
30021;BME280;16861;52.294;7.760;2023-02-19T11:08:22;100535.94;;;11.64;77.42
30021;BME280;16861;52.294;7.760;2023-02-19T11:10:49;100534.00;;;11.68;77.51
30021;BME280;16861;52.294;7.760;2023-02-19T11:13:29;100532.16;;;11.70;76.07
30021;BME280;16861;52.294;7.760;2023-02-19T11:15:58;100522.91;;;11.79;78.50
30021;BME280;16861;52.294;7.760;2023-02-19T11:18:27;100529.53;;;11.88;78.13
30021;BME280;16861;52.294;7.760;2023-02-19T11:23:31;100517.25;;;12.22;81.49
30021;BME280;16861;52.294;7.760;2023-02-19T11:26:02;100520.63;;;12.59;86.48
30021;BME280;16861;52.294;7.760;2023-02-19T11:28:32;100508.31;;;13.08;89.88
30021;BME280;16861;52.294;7.760;2023-02-19T11:36:41;100501.38;;;14.44;77.44
30021;BME280;16861;52.294;7.760;2023-02-19T11:41:55;100498.09;;;14.70;75.98
30021;BME280;16861;52.294;7.760;2023-02-19T11:58:06;100507.16;;;16.94;81.35
30021;BME280;16861;52.294;7.760;2023-02-19T12:00:57;100505.38;;;17.57;70.96
30021;BME280;16861;52.294;7.760;2023-02-19T12:09:37;100517.84;;;18.51;65.73
30021;BME280;16861;52.294;7.760;2023-02-19T12:25:53;100539.00;;;17.34;61.25
30021;BME280;16861;52.294;7.760;2023-02-19T12:31:33;100534.97;;;16.64;60.85
30021;BME280;16861;52.294;7.760;2023-02-19T12:45:34;100544.34;;;15.77;65.92
30021;BME280;16861;52.294;7.760;2023-02-19T12:48:17;100551.94;;;15.69;63.91
30021;BME280;16861;52.294;7.760;2023-02-19T12:50:48;100555.75;;;15.65;64.99
30021;BME280;16861;52.294;7.760;2023-02-19T12:55:46;100546.34;;;15.46;67.14
30021;BME280;16861;52.294;7.760;2023-02-19T12:58:23;100541.56;;;15.39;64.92
30021;BME280;16861;52.294;7.760;2023-02-19T13:00:54;100550.34;;;15.39;67.62
30021;BME280;16861;52.294;7.760;2023-02-19T13:08:51;100550.53;;;15.36;65.10
30021;BME280;16861;52.294;7.760;2023-02-19T13:11:57;100553.50;;;15.31;64.75
30021;BME280;16861;52.294;7.760;2023-02-19T13:14:32;100566.31;;;15.24;65.70
30021;BME280;16861;52.294;7.760;2023-02-19T13:17:05;100558.84;;;15.17;65.88
30021;BME280;16861;52.294;7.760;2023-02-19T13:19:35;100559.88;;;15.14;67.55
30021;BME280;16861;52.294;7.760;2023-02-19T13:22:17;100562.91;;;15.08;65.08
30021;BME280;16861;52.294;7.760;2023-02-19T13:25:07;100565.28;;;15.13;67.45
30021;BME280;16861;52.294;7.760;2023-02-19T13:31:06;100554.41;;;15.03;64.58
30021;BME280;16861;52.294;7.760;2023-02-19T13:33:41;100558.00;;;15.02;64.46
30021;BME280;16861;52.294;7.760;2023-02-19T13:36:19;100562.06;;;14.93;64.00
30021;BME280;16861;52.294;7.760;2023-02-19T13:38:47;100560.66;;;14.87;65.68
30021;BME280;16861;52.294;7.760;2023-02-19T13:41:28;100566.13;;;14.69;62.59
30021;BME280;16861;52.294;7.760;2023-02-19T13:44:01;100569.34;;;14.60;64.23
30021;BME280;16861;52.294;7.760;2023-02-19T13:46:35;100580.59;;;14.49;63.72
30021;BME280;16861;52.294;7.760;2023-02-19T13:51:53;100574.00;;;14.26;64.31
30021;BME280;16861;52.294;7.760;2023-02-19T13:54:27;100582.50;;;14.16;64.12
30021;BME280;16861;52.294;7.760;2023-02-19T13:59:50;100578.97;;;14.01;66.42
30021;BME280;16861;52.294;7.760;2023-02-19T14:04:53;100589.94;;;13.79;64.32
30021;BME280;16861;52.294;7.760;2023-02-19T14:07:33;100589.78;;;13.66;63.92
30021;BME280;16861;52.294;7.760;2023-02-19T14:10:01;100598.84;;;13.62;66.73
30021;BME280;16861;52.294;7.760;2023-02-19T14:12:33;100605.59;;;13.51;65.45
30021;BME280;16861;52.294;7.760;2023-02-19T14:21:38;100619.09;;;13.29;65.72
30021;BME280;16861;52.294;7.760;2023-02-19T14:24:10;100615.69;;;13.27;65.71
30021;BME280;16861;52.294;7.760;2023-02-19T14:26:39;100616.81;;;13.23;68.11
30021;BME280;16861;52.294;7.760;2023-02-19T14:29:07;100622.47;;;13.15;67.55
30021;BME280;16861;52.294;7.760;2023-02-19T14:31:36;100611.38;;;13.08;67.27
30021;BME280;16861;52.294;7.760;2023-02-19T14:34:05;100616.16;;;13.01;67.12
30021;BME280;16861;52.294;7.760;2023-02-19T14:36:57;100602.56;;;12.92;65.48
30021;BME280;16861;52.294;7.760;2023-02-19T14:39:29;100605.41;;;12.88;67.34
30021;BME280;16861;52.294;7.760;2023-02-19T14:41:59;100596.88;;;12.83;67.04
30021;BME280;16861;52.294;7.760;2023-02-19T14:44:29;100587.41;;;12.79;66.92
30021;BME280;16861;52.294;7.760;2023-02-19T14:47:07;100578.84;;;12.74;65.80
30021;BME280;16861;52.294;7.760;2023-02-19T14:49:44;100570.22;;;12.70;65.93
30021;BME280;16861;52.294;7.760;2023-02-19T14:52:19;100569.47;;;12.68;66.27
30021;BME280;16861;52.294;7.760;2023-02-19T14:57:20;100556.56;;;12.62;66.80
30021;BME280;16861;52.294;7.760;2023-02-19T15:02:51;100542.75;;;12.57;66.87
30021;BME280;16861;52.294;7.760;2023-02-19T15:05:24;100542.91;;;12.54;66.40
30021;BME280;16861;52.294;7.760;2023-02-19T15:07:53;100525.28;;;12.54;68.06
30021;BME280;16861;52.294;7.760;2023-02-19T15:10:20;100522.66;;;12.54;68.32
30021;BME280;16861;52.294;7.760;2023-02-19T15:12:53;100512.31;;;12.49;66.40
30021;BME280;16861;52.294;7.760;2023-02-19T15:15:21;100516.69;;;12.50;66.95
30021;BME280;16861;52.294;7.760;2023-02-19T15:17:49;100520.00;;;12.54;68.28
30021;BME280;16861;52.294;7.760;2023-02-19T15:20:22;100517.69;;;12.48;66.17